Time;durP1;ratioP1;P1;durP2;ratioP2;P2;SDS_P1;SDS_P2;PMS_P1;PMS_P2;Temp;Humidity;BMP_temperature;BMP_pressure;BME280_temperature;BME280_humidity;BME280_pressure;Samples;Min_cycle;Max_cycle;Signal;HPM_P1;HPM_P2
2023/02/08 00:01:24;;;;;;;28.88;26.80;;;;;;;;;;5101266;28;20206;-85
2023/02/08 00:03:51;;;;;;;26.77;24.92;;;;;;;;;;5100873;28;20211;-84
2023/02/08 00:06:19;;;;;;;26.55;24.80;;;;;;;;;;5100871;28;20218;-85
2023/02/08 00:08:46;;;;;;;26.10;24.40;;;;;;;;;;5100900;28;20256;-85
2023/02/08 00:11:13;;;;;;;27.85;25.75;;;;;;;;;;5100855;28;20203;-85
2023/02/08 00:13:42;;;;;;;27.70;25.65;;;;;;;;;;5101220;28;20257;-85
2023/02/08 00:16:09;;;;;;;25.67;24.02;;;;;;;;;;5100698;28;20218;-84
2023/02/08 00:18:36;;;;;;;25.60;23.70;;;;;;;;;;5100603;28;20235;-85
2023/02/08 00:21:07;;;;;;;25.92;24.17;;;;;;;;;;5100597;28;20717;-85
2023/02/08 00:23:34;;;;;;;26.15;24.35;;;;;;;;;;5100183;28;20227;-85
2023/02/08 00:26:01;;;;;;;25.90;24.23;;;;;;;;;;5100860;28;20301;-84
2023/02/08 00:28:28;;;;;;;27.13;25.23;;;;;;;;;;5099896;28;20681;-85
2023/02/08 00:30:56;;;;;;;25.48;23.88;;;;;;;;;;5099139;28;20207;-85
2023/02/08 00:33:23;;;;;;;25.02;23.30;;;;;;;;;;5099780;28;20541;-85
2023/02/08 00:35:50;;;;;;;25.80;23.80;;;;;;;;;;5100091;28;20226;-85
2023/02/08 00:38:17;;;;;;;26.35;24.60;;;;;;;;;;5100454;28;20200;-85
2023/02/08 00:40:44;;;;;;;26.55;24.85;;;;;;;;;;5099736;28;20229;-85
2023/02/08 00:43:11;;;;;;;26.40;24.55;;;;;;;;;;5099588;28;20192;-85
2023/02/08 00:45:38;;;;;;;27.48;25.58;;;;;;;;;;5100357;28;20268;-85
2023/02/08 00:48:06;;;;;;;26.38;24.58;;;;;;;;;;5100810;28;20203;-84
2023/02/08 00:50:34;;;;;;;26.90;25.00;;;;;;;;;;5100393;28;20228;-85
2023/02/08 00:53:00;;;;;;;25.23;23.63;;;;;;;;;;5100053;28;20199;-85
2023/02/08 00:55:28;;;;;;;26.27;24.25;;;;;;;;;;5099947;28;20260;-84
2023/02/08 00:57:55;;;;;;;25.95;24.35;;;;;;;;;;5099821;28;20203;-84
2023/02/08 01:00:22;;;;;;;26.77;24.98;;;;;;;;;;5100028;28;20208;-84
2023/02/08 01:02:49;;;;;;;26.42;24.70;;;;;;;;;;5099649;28;20211;-85
2023/02/08 01:05:18;;;;;;;26.75;24.95;;;;;;;;;;5100331;28;20223;-85
2023/02/08 01:07:45;;;;;;;26.20;24.50;;;;;;;;;;5098716;28;20704;-84
2023/02/08 01:10:12;;;;;;;25.40;23.60;;;;;;;;;;5099913;28;20610;-85
2023/02/08 01:12:39;;;;;;;25.08;23.48;;;;;;;;;;5099305;28;20228;-84
2023/02/08 01:15:06;;;;;;;26.02;24.35;;;;;;;;;;5099659;28;20227;-85
2023/02/08 01:17:33;;;;;;;27.33;25.48;;;;;;;;;;5098875;28;20229;-86
2023/02/08 01:20:00;;;;;;;26.17;24.25;;;;;;;;;;5098669;28;20612;-85
2023/02/08 01:22:30;;;;;;;27.92;25.77;;;;;;;;;;5098759;28;20260;-84
2023/02/08 01:24:57;;;;;;;25.88;24.20;;;;;;;;;;5098974;28;20223;-85
2023/02/08 01:27:24;;;;;;;27.60;25.80;;;;;;;;;;5098794;28;20276;-84
2023/02/08 01:29:51;;;;;;;26.42;24.45;;;;;;;;;;5099021;28;20203;-84
2023/02/08 01:32:18;;;;;;;24.88;23.30;;;;;;;;;;5099139;28;20206;-85
2023/02/08 01:34:45;;;;;;;26.92;24.60;;;;;;;;;;5099131;28;20231;-85
2023/02/08 01:37:12;;;;;;;26.95;24.95;;;;;;;;;;5099704;28;20272;-85
2023/02/08 01:39:40;;;;;;;26.33;24.63;;;;;;;;;;5098312;28;20236;-83
2023/02/08 01:42:10;;;;;;;27.02;25.00;;;;;;;;;;5098700;28;20208;-84
2023/02/08 01:44:56;;;;;;;26.70;24.88;;;;;;;;;;5098531;28;20199;-84
2023/02/08 01:47:23;;;;;;;27.05;25.05;;;;;;;;;;5098858;28;20218;-85
2023/02/08 01:49:50;;;;;;;26.98;25.08;;;;;;;;;;5099182;28;20664;-84
2023/02/08 01:52:19;;;;;;;27.77;25.83;;;;;;;;;;5098333;28;20195;-85
2023/02/08 01:54:50;;;;;;;26.65;24.70;;;;;;;;;;5098811;28;20226;-85
2023/02/08 01:57:17;;;;;;;26.38;24.63;;;;;;;;;;5099256;28;20595;-84
2023/02/08 01:59:46;;;;;;;26.95;25.15;;;;;;;;;;5099010;28;20596;-84
2023/02/08 02:02:16;;;;;;;26.60;24.80;;;;;;;;;;5097944;28;20207;-85
2023/02/08 02:04:44;;;;;;;26.77;24.98;;;;;;;;;;5099195;28;20280;-85
2023/02/08 02:07:12;;;;;;;26.80;24.80;;;;;;;;;;5098138;28;20216;-84
2023/02/08 02:09:42;;;;;;;26.88;24.95;;;;;;;;;;5099514;28;20210;-84
2023/02/08 02:12:11;;;;;;;26.63;24.77;;;;;;;;;;5101279;28;20217;-84
2023/02/08 02:14:39;;;;;;;26.15;24.45;;;;;;;;;;5102173;28;20234;-84
2023/02/08 02:17:06;;;;;;;25.98;24.02;;;;;;;;;;5102435;28;20203;-84
2023/02/08 02:19:46;;;;;;;26.50;24.40;;;;;;;;;;5103002;28;20665;-84
2023/02/08 02:22:21;;;;;;;25.33;23.73;;;;;;;;;;5102586;28;20596;-84
2023/02/08 02:24:58;;;;;;;27.00;25.10;;;;;;;;;;5102032;28;20266;-84
2023/02/08 02:27:30;;;;;;;25.05;23.25;;;;;;;;;;5102415;28;20588;-85
2023/02/08 02:30:05;;;;;;;26.88;24.88;;;;;;;;;;5102516;28;20180;-84
2023/02/08 02:32:40;;;;;;;27.50;25.52;;;;;;;;;;5101655;28;20182;-85
2023/02/08 02:35:13;;;;;;;27.50;25.27;;;;;;;;;;5101564;28;20258;-85
2023/02/08 02:37:48;;;;;;;27.10;25.25;;;;;;;;;;5102404;28;20183;-84
2023/02/08 02:40:19;;;;;;;26.67;25.05;;;;;;;;;;5102763;28;20191;-85
2023/02/08 02:45:41;;;;;;;26.88;24.88;;;;;;;;;;5074821;28;20217;-85
2023/02/08 02:48:12;;;;;;;27.63;25.63;;;;;;;;;;5101743;28;20241;-85
2023/02/08 02:50:42;;;;;;;26.10;24.15;;;;;;;;;;5102345;28;20187;-85
2023/02/08 02:53:18;;;;;;;26.42;24.45;;;;;;;;;;5101503;28;20233;-85
2023/02/08 02:55:48;;;;;;;27.27;25.33;;;;;;;;;;5101925;28;20218;-85
2023/02/08 02:58:17;;;;;;;27.15;25.13;;;;;;;;;;5102303;28;20525;-84
2023/02/08 03:00:44;;;;;;;29.00;26.80;;;;;;;;;;5102176;28;20650;-85
2023/02/08 03:03:18;;;;;;;26.88;24.88;;;;;;;;;;5103910;28;20673;-85
2023/02/08 03:05:45;;;;;;;27.48;25.35;;;;;;;;;;5104813;28;20224;-85
2023/02/08 03:08:18;;;;;;;27.80;25.80;;;;;;;;;;5103795;28;20228;-84
2023/02/08 03:10:53;;;;;;;25.67;23.98;;;;;;;;;;5104745;28;20257;-84
2023/02/08 03:13:26;;;;;;;26.52;24.38;;;;;;;;;;5103954;28;20781;-84
2023/02/08 03:16:00;;;;;;;26.50;24.60;;;;;;;;;;5104376;28;20311;-84
2023/02/08 03:18:34;;;;;;;26.85;25.05;;;;;;;;;;5104342;28;20232;-84
2023/02/08 03:21:04;;;;;;;27.45;25.33;;;;;;;;;;5103771;28;20248;-84
2023/02/08 03:23:32;;;;;;;26.88;25.08;;;;;;;;;;5103823;28;20710;-84
2023/02/08 03:26:03;;;;;;;27.77;25.70;;;;;;;;;;5103778;28;20232;-85
2023/02/08 03:28:35;;;;;;;27.63;25.83;;;;;;;;;;5103505;28;20595;-84
2023/02/08 03:31:06;;;;;;;27.42;25.58;;;;;;;;;;5103913;28;20698;-85
2023/02/08 03:33:37;;;;;;;25.80;24.10;;;;;;;;;;5104034;28;20229;-84
2023/02/08 03:36:06;;;;;;;27.00;24.98;;;;;;;;;;5103089;28;20699;-85
2023/02/08 03:38:36;;;;;;;25.83;24.02;;;;;;;;;;5104503;28;20207;-85
2023/02/08 03:41:05;;;;;;;25.63;23.65;;;;;;;;;;5104691;28;20660;-84
2023/02/08 03:43:33;;;;;;;26.13;24.23;;;;;;;;;;5102781;28;20730;-84
2023/02/08 03:46:03;;;;;;;27.52;25.33;;;;;;;;;;5104038;28;20250;-84
2023/02/08 03:48:32;;;;;;;26.30;24.40;;;;;;;;;;5103649;28;20264;-85
2023/02/08 03:51:01;;;;;;;25.30;23.70;;;;;;;;;;5103856;28;20603;-84
2023/02/08 03:53:29;;;;;;;25.38;23.77;;;;;;;;;;5102158;28;20207;-85
2023/02/08 03:55:58;;;;;;;25.38;23.58;;;;;;;;;;5103212;28;20226;-85
2023/02/08 03:58:27;;;;;;;24.65;22.70;;;;;;;;;;5103884;28;20198;-84
2023/02/08 04:00:56;;;;;;;25.10;23.30;;;;;;;;;;5104583;28;20260;-84
2023/02/08 04:03:25;;;;;;;25.95;24.25;;;;;;;;;;5103161;28;20215;-84
2023/02/08 04:05:52;;;;;;;25.50;23.90;;;;;;;;;;5101875;28;20223;-85
2023/02/08 04:08:20;;;;;;;26.00;24.15;;;;;;;;;;5101997;28;20228;-84
2023/02/08 04:10:48;;;;;;;25.17;23.58;;;;;;;;;;5102161;28;20225;-84
2023/02/08 04:13:15;;;;;;;24.95;23.30;;;;;;;;;;5102517;28;20202;-86
2023/02/08 04:15:43;;;;;;;25.98;24.23;;;;;;;;;;5101910;28;20231;-84
2023/02/08 04:18:10;;;;;;;25.95;24.15;;;;;;;;;;5103190;28;20235;-85
2023/02/08 04:20:37;;;;;;;25.58;23.77;;;;;;;;;;5103139;28;20275;-84
2023/02/08 04:23:04;;;;;;;25.75;24.13;;;;;;;;;;5102758;28;20276;-84
2023/02/08 04:25:32;;;;;;;25.88;24.00;;;;;;;;;;5103091;28;20249;-83
2023/02/08 04:27:59;;;;;;;25.23;23.52;;;;;;;;;;5101947;28;20227;-84
2023/02/08 04:30:26;;;;;;;25.65;23.90;;;;;;;;;;5102675;28;20272;-84
2023/02/08 04:32:53;;;;;;;25.33;23.73;;;;;;;;;;5100894;28;20206;-85
2023/02/08 04:35:21;;;;;;;26.23;24.35;;;;;;;;;;5102558;28;20268;-85
2023/02/08 04:37:48;;;;;;;26.27;24.58;;;;;;;;;;5102558;28;20635;-85
2023/02/08 04:40:15;;;;;;;25.92;24.10;;;;;;;;;;5101571;28;20562;-85
2023/02/08 04:42:43;;;;;;;25.02;23.42;;;;;;;;;;5101867;28;20202;-84
2023/02/08 04:45:11;;;;;;;27.67;25.58;;;;;;;;;;5101076;28;20273;-84
2023/02/08 04:47:38;;;;;;;26.00;24.13;;;;;;;;;;5102386;28;20211;-84
2023/02/08 04:50:07;;;;;;;25.75;23.98;;;;;;;;;;5101259;28;20660;-84
2023/02/08 04:52:34;;;;;;;26.70;24.60;;;;;;;;;;5101888;28;20558;-85
2023/02/08 04:55:01;;;;;;;27.20;25.08;;;;;;;;;;5100800;28;20279;-86
2023/02/08 04:57:28;;;;;;;25.00;23.30;;;;;;;;;;5101571;28;20236;-85
2023/02/08 04:59:56;;;;;;;26.58;24.77;;;;;;;;;;5102163;28;20604;-84
2023/02/08 05:02:23;;;;;;;25.73;24.02;;;;;;;;;;5101254;28;20207;-85
2023/02/08 05:04:50;;;;;;;26.00;24.27;;;;;;;;;;5102006;28;20272;-85
2023/02/08 05:07:17;;;;;;;24.60;22.98;;;;;;;;;;5100797;28;20215;-83
2023/02/08 05:09:44;;;;;;;25.77;24.02;;;;;;;;;;5101881;28;20202;-84
2023/02/08 05:12:11;;;;;;;26.25;24.45;;;;;;;;;;5100889;28;20256;-85
2023/02/08 05:14:38;;;;;;;25.60;23.90;;;;;;;;;;5101504;28;20198;-85
2023/02/08 05:17:06;;;;;;;26.90;25.02;;;;;;;;;;5100600;28;20207;-85
2023/02/08 05:19:34;;;;;;;25.33;23.73;;;;;;;;;;5101353;28;20191;-84
2023/02/08 05:22:01;;;;;;;26.17;24.48;;;;;;;;;;5101194;28;20228;-84
2023/02/08 05:24:28;;;;;;;26.05;24.35;;;;;;;;;;5101955;28;20200;-83
2023/02/08 05:26:55;;;;;;;25.80;24.00;;;;;;;;;;5101014;28;20202;-84
2023/02/08 05:29:22;;;;;;;24.83;23.00;;;;;;;;;;5100948;28;20203;-85
2023/02/08 05:31:49;;;;;;;25.23;23.52;;;;;;;;;;5100073;28;20625;-85
2023/02/08 05:34:18;;;;;;;25.60;23.95;;;;;;;;;;5101543;28;20256;-85
2023/02/08 05:36:45;;;;;;;25.02;23.23;;;;;;;;;;5100518;28;20199;-85
2023/02/08 05:39:12;;;;;;;24.83;23.08;;;;;;;;;;5101079;28;20211;-84
2023/02/08 05:41:39;;;;;;;24.92;23.33;;;;;;;;;;5101183;28;20206;-85
2023/02/08 05:44:06;;;;;;;24.48;22.95;;;;;;;;;;5101847;28;20540;-84
2023/02/08 05:46:33;;;;;;;25.13;23.58;;;;;;;;;;5104519;28;20226;-86
2023/02/08 05:49:00;;;;;;;26.05;24.23;;;;;;;;;;5105065;28;20278;-85
2023/02/08 05:51:28;;;;;;;26.08;24.25;;;;;;;;;;5103624;28;20207;-86
2023/02/08 05:53:55;;;;;;;25.23;23.63;;;;;;;;;;5106017;28;20203;-84
2023/02/08 05:56:22;;;;;;;25.70;24.00;;;;;;;;;;5104710;28;20633;-84
2023/02/08 05:58:49;;;;;;;25.30;23.80;;;;;;;;;;5104541;28;20202;-85
2023/02/08 06:01:16;;;;;;;25.48;23.77;;;;;;;;;;5104501;28;20199;-85
2023/02/08 06:03:43;;;;;;;25.10;23.40;;;;;;;;;;5104336;28;20210;-85
2023/02/08 06:06:10;;;;;;;24.42;22.92;;;;;;;;;;5104425;28;20219;-84
2023/02/08 06:08:39;;;;;;;24.48;22.88;;;;;;;;;;5104664;28;20226;-85
2023/02/08 06:11:06;;;;;;;23.48;22.17;;;;;;;;;;5104674;28;20255;-84
2023/02/08 06:13:33;;;;;;;23.90;22.40;;;;;;;;;;5104689;28;20252;-84
2023/02/08 06:16:00;;;;;;;22.55;21.10;;;;;;;;;;5105578;28;20218;-84
2023/02/08 06:18:27;;;;;;;23.75;22.23;;;;;;;;;;5105616;28;20195;-84
2023/02/08 06:20:54;;;;;;;23.35;21.63;;;;;;;;;;5104834;28;20199;-85
2023/02/08 06:23:21;;;;;;;24.17;22.60;;;;;;;;;;5103196;28;20877;-84
2023/02/08 06:25:50;;;;;;;24.73;23.13;;;;;;;;;;5104110;28;20222;-84
2023/02/08 06:28:17;;;;;;;24.02;22.50;;;;;;;;;;5104618;28;20214;-85
2023/02/08 06:30:45;;;;;;;23.50;22.20;;;;;;;;;;5105012;28;20205;-84
2023/02/08 06:33:12;;;;;;;24.67;22.63;;;;;;;;;;5104799;28;20202;-84
2023/02/08 06:35:39;;;;;;;24.30;22.70;;;;;;;;;;5103930;28;20223;-84
2023/02/08 06:38:06;;;;;;;23.98;22.42;;;;;;;;;;5104246;28;20209;-84
2023/02/08 06:40:33;;;;;;;25.05;23.25;;;;;;;;;;5104768;28;20229;-85
2023/02/08 06:43:02;;;;;;;24.50;22.73;;;;;;;;;;5104583;28;20252;-85
2023/02/08 06:45:29;;;;;;;23.80;22.30;;;;;;;;;;5103264;28;20222;-85
2023/02/08 06:47:56;;;;;;;23.90;22.40;;;;;;;;;;5103634;28;20222;-84
2023/02/08 06:50:23;;;;;;;26.40;24.55;;;;;;;;;;5103621;28;20228;-84
2023/02/08 06:52:50;;;;;;;25.90;24.10;;;;;;;;;;5103273;28;20206;-85
2023/02/08 06:55:17;;;;;;;26.23;24.33;;;;;;;;;;5103752;28;20218;-84
2023/02/08 06:57:44;;;;;;;26.33;24.60;;;;;;;;;;5103997;28;20203;-85
2023/02/08 07:00:14;;;;;;;25.13;23.27;;;;;;;;;;5103022;28;20252;-81
2023/02/08 07:02:41;;;;;;;25.33;23.75;;;;;;;;;;5101758;28;20214;-81
2023/02/08 07:05:08;;;;;;;26.90;24.85;;;;;;;;;;5101141;28;20218;-80
2023/02/08 07:07:35;;;;;;;25.48;23.67;;;;;;;;;;5102096;28;20207;-81
2023/02/08 07:10:02;;;;;;;25.70;23.92;;;;;;;;;;5101996;28;20672;-81
2023/02/08 07:12:29;;;;;;;24.90;23.30;;;;;;;;;;5101927;28;20203;-80
2023/02/08 07:14:56;;;;;;;25.83;24.02;;;;;;;;;;5100972;28;20253;-81
2023/02/08 07:17:24;;;;;;;25.05;23.25;;;;;;;;;;5101759;28;20210;-81
2023/02/08 07:19:51;;;;;;;24.63;22.80;;;;;;;;;;5102766;28;20206;-81
2023/02/08 07:22:19;;;;;;;25.50;23.80;;;;;;;;;;5101634;28;20242;-80
2023/02/08 07:24:46;;;;;;;24.10;22.50;;;;;;;;;;5102073;28;20284;-81
2023/02/08 07:27:13;;;;;;;24.60;22.83;;;;;;;;;;5101426;28;20214;-81
2023/02/08 07:29:40;;;;;;;25.25;23.35;;;;;;;;;;5101917;28;20223;-81
2023/02/08 07:32:08;;;;;;;26.67;24.48;;;;;;;;;;5101893;28;20204;-81
2023/02/08 07:34:39;;;;;;;24.55;22.75;;;;;;;;;;5102120;28;20212;-81
2023/02/08 07:37:07;;;;;;;24.33;22.73;;;;;;;;;;5101333;28;20234;-80
2023/02/08 07:39:34;;;;;;;23.50;22.10;;;;;;;;;;5102322;28;20207;-79
2023/02/08 07:42:01;;;;;;;24.17;22.63;;;;;;;;;;5100822;28;20726;-81
2023/02/08 07:44:28;;;;;;;23.65;22.05;;;;;;;;;;5101442;28;20264;-80
2023/02/08 07:46:55;;;;;;;24.15;22.63;;;;;;;;;;5101130;28;20210;-81
2023/02/08 07:49:22;;;;;;;23.85;22.25;;;;;;;;;;5094559;28;20276;-85
2023/02/08 07:51:50;;;;;;;24.08;22.48;;;;;;;;;;5091423;28;20208;-85
2023/02/08 07:54:17;;;;;;;24.45;22.85;;;;;;;;;;5084613;28;20221;-83
2023/02/08 07:56:44;;;;;;;24.50;22.80;;;;;;;;;;5084324;28;20262;-86
2023/02/08 07:59:11;;;;;;;25.23;23.55;;;;;;;;;;5083742;28;20542;-85
2023/02/08 08:01:38;;;;;;;25.25;23.65;;;;;;;;;;5081691;28;20246;-86
2023/02/08 08:04:05;;;;;;;24.55;22.85;;;;;;;;;;5081769;28;20211;-85
2023/02/08 08:06:32;;;;;;;25.90;24.23;;;;;;;;;;5081151;28;20224;-87
2023/02/08 08:09:01;;;;;;;23.42;21.98;;;;;;;;;;5080524;28;20219;-81
2023/02/08 08:11:27;;;;;;;25.42;23.73;;;;;;;;;;5080126;28;20615;-81
2023/02/08 08:13:54;;;;;;;25.48;23.60;;;;;;;;;;5081939;28;20223;-81
2023/02/08 08:16:22;;;;;;;23.90;22.33;;;;;;;;;;5081925;28;20227;-82
2023/02/08 08:18:49;;;;;;;24.67;23.10;;;;;;;;;;5081409;28;20195;-82
2023/02/08 08:21:16;;;;;;;24.92;23.40;;;;;;;;;;5083096;28;20715;-81
2023/02/08 08:23:44;;;;;;;24.55;23.00;;;;;;;;;;5082124;28;20218;-81
2023/02/08 08:26:13;;;;;;;25.05;23.45;;;;;;;;;;5081240;28;20223;-81
2023/02/08 08:28:40;;;;;;;25.20;23.50;;;;;;;;;;5082446;28;20272;-82
2023/02/08 08:31:11;;;;;;;24.35;22.75;;;;;;;;;;5081726;28;20212;-82
2023/02/08 08:33:38;;;;;;;24.30;22.70;;;;;;;;;;5080711;28;20649;-82
2023/02/08 08:36:05;;;;;;;25.60;23.90;;;;;;;;;;5082022;28;20250;-81
2023/02/08 08:38:32;;;;;;;26.70;24.73;;;;;;;;;;5081998;28;20204;-81
2023/02/08 08:40:59;;;;;;;24.73;23.13;;;;;;;;;;5082423;28;20211;-81
2023/02/08 08:43:28;;;;;;;25.55;23.85;;;;;;;;;;5081593;28;20208;-81
2023/02/08 08:45:55;;;;;;;25.33;23.65;;;;;;;;;;5080548;28;20593;-82
2023/02/08 08:48:22;;;;;;;28.63;26.33;;;;;;;;;;5081405;28;20220;-81
2023/02/08 08:50:49;;;;;;;27.35;25.45;;;;;;;;;;5081363;28;20261;-81
2023/02/08 08:53:18;;;;;;;27.65;25.55;;;;;;;;;;5079845;28;20662;-81
2023/02/08 08:55:44;;;;;;;26.00;24.13;;;;;;;;;;5080379;28;20227;-80
2023/02/08 08:58:11;;;;;;;25.33;23.60;;;;;;;;;;5081467;28;20194;-82
2023/02/08 09:00:40;;;;;;;123.78;77.45;;;;;;;;;;5081455;28;20203;-82
2023/02/08 09:03:07;;;;;;;35.25;31.75;;;;;;;;;;5080895;28;20210;-81
2023/02/08 09:05:35;;;;;;;27.40;25.30;;;;;;;;;;5081654;28;20227;-82
2023/02/08 09:08:02;;;;;;;25.30;23.73;;;;;;;;;;5080874;28;20199;-82
2023/02/08 09:10:29;;;;;;;26.10;24.30;;;;;;;;;;5081515;28;20257;-82
2023/02/08 09:12:56;;;;;;;26.55;24.35;;;;;;;;;;5080853;28;20208;-81
2023/02/08 09:15:24;;;;;;;25.67;23.88;;;;;;;;;;5081950;28;20225;-82
2023/02/08 09:17:52;;;;;;;25.98;24.23;;;;;;;;;;5082095;28;20209;-81
2023/02/08 09:20:20;;;;;;;25.80;24.05;;;;;;;;;;5082379;28;20609;-82
2023/02/08 09:22:47;;;;;;;24.88;23.17;;;;;;;;;;5081707;28;20717;-82
2023/02/08 09:25:14;;;;;;;26.58;24.60;;;;;;;;;;5080521;28;20232;-82
2023/02/08 09:27:41;;;;;;;25.77;23.50;;;;;;;;;;5081890;28;20666;-82
2023/02/08 09:30:09;;;;;;;25.30;23.60;;;;;;;;;;5082281;28;20670;-81
2023/02/08 09:32:38;;;;;;;25.60;23.80;;;;;;;;;;5081485;28;20242;-82
2023/02/08 09:35:08;;;;;;;24.98;23.25;;;;;;;;;;5082102;28;20221;-81
2023/02/08 09:37:35;;;;;;;25.35;23.45;;;;;;;;;;5081739;28;20237;-81
2023/02/08 09:40:02;;;;;;;24.85;23.15;;;;;;;;;;5081796;28;20258;-82
2023/02/08 09:42:31;;;;;;;28.30;26.30;;;;;;;;;;5081178;28;20216;-82
2023/02/08 09:45:03;;;;;;;25.08;23.38;;;;;;;;;;5081814;28;20627;-82
2023/02/08 09:47:32;;;;;;;26.48;24.58;;;;;;;;;;5081754;28;20273;-82
2023/02/08 09:50:01;;;;;;;24.25;22.65;;;;;;;;;;5081962;28;20272;-82
2023/02/08 09:52:33;;;;;;;24.60;23.05;;;;;;;;;;5081846;28;20229;-82
2023/02/08 09:55:01;;;;;;;24.63;23.10;;;;;;;;;;5082968;28;20288;-81
2023/02/08 09:57:32;;;;;;;24.45;22.85;;;;;;;;;;5081012;28;20236;-83
2023/02/08 10:00:00;;;;;;;23.50;22.10;;;;;;;;;;5080334;28;20231;-82
2023/02/08 10:02:29;;;;;;;24.42;22.83;;;;;;;;;;5080867;28;20225;-81
2023/02/08 10:04:58;;;;;;;24.48;22.92;;;;;;;;;;5082984;28;20703;-81
2023/02/08 10:07:26;;;;;;;23.98;22.50;;;;;;;;;;5082857;28;20250;-82
2023/02/08 10:09:55;;;;;;;24.63;22.92;;;;;;;;;;5082628;28;20256;-80
2023/02/08 10:12:26;;;;;;;23.88;22.40;;;;;;;;;;5081196;28;20259;-81
2023/02/08 10:14:58;;;;;;;24.05;22.30;;;;;;;;;;5082970;28;20226;-80
2023/02/08 10:17:33;;;;;;;25.85;24.15;;;;;;;;;;5083614;28;20197;-81
2023/02/08 10:20:04;;;;;;;24.00;22.40;;;;;;;;;;5083565;28;20197;-81
2023/02/08 10:22:37;;;;;;;24.60;23.00;;;;;;;;;;5082442;28;20210;-81
2023/02/08 10:25:14;;;;;;;25.65;23.98;;;;;;;;;;5082660;28;20635;-81
2023/02/08 10:27:47;;;;;;;24.98;23.35;;;;;;;;;;5082770;28;21237;-80
2023/02/08 10:30:17;;;;;;;26.48;24.67;;;;;;;;;;5083315;28;20225;-81
2023/02/08 10:32:49;;;;;;;25.48;23.67;;;;;;;;;;5085088;28;20193;-78
2023/02/08 10:35:23;;;;;;;25.05;23.45;;;;;;;;;;5086407;28;20229;-81
2023/02/08 10:37:50;;;;;;;24.15;22.55;;;;;;;;;;5088058;28;20272;-83
2023/02/08 10:40:29;;;;;;;24.90;23.30;;;;;;;;;;5088704;28;20255;-82
2023/02/08 10:43:15;;;;;;;25.50;23.92;;;;;;;;;;5088570;28;20217;-82
2023/02/08 10:45:46;;;;;;;25.45;23.75;;;;;;;;;;5087624;28;20229;-82
2023/02/08 10:48:15;;;;;;;24.83;23.23;;;;;;;;;;5087217;28;20280;-82
2023/02/08 10:50:46;;;;;;;26.45;24.75;;;;;;;;;;5087438;28;20247;-82
2023/02/08 10:53:15;;;;;;;24.80;23.30;;;;;;;;;;5086672;28;20639;-86
2023/02/08 10:55:44;;;;;;;25.08;23.48;;;;;;;;;;5087190;28;20231;-81
2023/02/08 10:58:15;;;;;;;24.20;22.50;;;;;;;;;;5086656;28;20206;-81
2023/02/08 11:00:42;;;;;;;24.95;23.25;;;;;;;;;;5085758;28;20182;-81
2023/02/08 11:03:15;;;;;;;23.35;21.90;;;;;;;;;;5085021;28;20218;-82
2023/02/08 11:05:42;;;;;;;25.30;23.75;;;;;;;;;;5087719;28;20223;-81
2023/02/08 11:08:10;;;;;;;25.95;24.15;;;;;;;;;;5086197;28;20223;-81
2023/02/08 11:10:37;;;;;;;24.92;23.33;;;;;;;;;;5086521;28;20641;-81
2023/02/08 11:13:07;;;;;;;26.08;24.48;;;;;;;;;;5085902;28;20235;-81
2023/02/08 11:15:38;;;;;;;26.35;24.65;;;;;;;;;;5085846;28;20259;-82
2023/02/08 11:18:06;;;;;;;26.42;24.63;;;;;;;;;;5084482;28;20225;-83
2023/02/08 11:20:35;;;;;;;24.95;23.30;;;;;;;;;;5085350;28;20251;-84
2023/02/08 11:23:03;;;;;;;23.88;22.48;;;;;;;;;;5085786;28;20663;-84
2023/02/08 11:25:37;;;;;;;24.52;22.92;;;;;;;;;;5084603;28;20276;-84
2023/02/08 11:28:05;;;;;;;23.52;22.02;;;;;;;;;;5084044;28;20202;-83
2023/02/08 11:30:34;;;;;;;24.38;22.77;;;;;;;;;;5083890;28;20255;-83
2023/02/08 11:33:22;;;;;;;25.58;23.77;;;;;;;;;;5083436;28;20221;-83
2023/02/08 11:35:54;;;;;;;24.00;22.40;;;;;;;;;;5083379;28;20229;-84
2023/02/08 11:38:26;;;;;;;23.33;21.77;;;;;;;;;;5085047;28;20255;-84
2023/02/08 11:40:54;;;;;;;24.15;22.65;;;;;;;;;;5085081;28;20190;-85
2023/02/08 11:43:23;;;;;;;23.58;22.08;;;;;;;;;;5082797;28;20264;-84
2023/02/08 11:45:51;;;;;;;24.77;23.27;;;;;;;;;;5084438;28;20272;-83
2023/02/08 11:48:23;;;;;;;24.35;22.88;;;;;;;;;;5084813;28;20252;-84
2023/02/08 11:50:54;;;;;;;22.65;21.27;;;;;;;;;;5084473;28;20224;-84
2023/02/08 11:53:26;;;;;;;23.73;22.25;;;;;;;;;;5083997;28;20198;-84
2023/02/08 11:56:02;;;;;;;23.75;22.20;;;;;;;;;;5083235;28;20317;-84
2023/02/08 11:58:29;;;;;;;22.95;21.45;;;;;;;;;;5084923;28;20189;-84
2023/02/08 12:01:01;;;;;;;23.13;21.63;;;;;;;;;;5085317;28;20203;-84
2023/02/08 12:03:32;;;;;;;24.10;22.70;;;;;;;;;;5083917;28;20214;-83
2023/02/08 12:06:07;;;;;;;24.25;22.75;;;;;;;;;;5084864;28;20256;-84
2023/02/08 12:08:38;;;;;;;22.90;21.50;;;;;;;;;;5084860;28;20209;-83
2023/02/08 12:11:09;;;;;;;23.45;22.05;;;;;;;;;;5084142;28;20237;-84
2023/02/08 12:13:50;;;;;;;23.35;22.05;;;;;;;;;;5084124;28;20236;-84
2023/02/08 12:16:31;;;;;;;22.08;20.70;;;;;;;;;;5083050;28;20222;-84
2023/02/08 12:19:19;;;;;;;22.80;21.40;;;;;;;;;;5084551;28;20191;-83
2023/02/08 12:21:47;;;;;;;23.77;21.85;;;;;;;;;;5082590;28;20224;-84
2023/02/08 12:24:20;;;;;;;22.25;20.75;;;;;;;;;;5084699;28;20225;-84
2023/02/08 12:26:56;;;;;;;22.60;21.20;;;;;;;;;;5085198;28;20193;-84
2023/02/08 12:29:30;;;;;;;23.95;22.45;;;;;;;;;;5083755;28;20236;-84
2023/02/08 12:32:05;;;;;;;22.35;20.95;;;;;;;;;;5083965;28;20273;-84
2023/02/08 12:34:37;;;;;;;22.33;20.92;;;;;;;;;;5084537;28;20274;-84
2023/02/08 12:42:56;;;;;;;23.30;21.80;;;;;;;;;;5083734;28;20177;-84
2023/02/08 12:45:36;;;;;;;23.40;21.90;;;;;;;;;;5083517;28;20225;-84
2023/02/08 12:48:10;;;;;;;22.73;21.33;;;;;;;;;;5084129;28;20545;-84
2023/02/08 12:50:41;;;;;;;23.27;21.77;;;;;;;;;;5084204;28;20215;-84
2023/02/08 12:53:14;;;;;;;24.02;22.52;;;;;;;;;;5082921;28;20210;-84
2023/02/08 12:55:41;;;;;;;24.10;22.65;;;;;;;;;;5083492;28;20295;-84
2023/02/08 12:58:20;;;;;;;25.17;23.48;;;;;;;;;;5083253;28;20207;-84
2023/02/08 13:00:47;;;;;;;25.15;23.65;;;;;;;;;;5083595;28;20194;-83
2023/02/08 13:03:21;;;;;;;24.48;22.88;;;;;;;;;;5083129;28;20218;-83
2023/02/08 13:05:49;;;;;;;23.65;22.25;;;;;;;;;;5083905;28;20283;-84
2023/02/08 13:08:23;;;;;;;24.70;23.15;;;;;;;;;;5082999;28;20206;-84
2023/02/08 13:10:54;;;;;;;24.00;22.55;;;;;;;;;;5083887;28;20229;-84
2023/02/08 13:13:24;;;;;;;24.05;22.58;;;;;;;;;;5083144;28;20237;-84
2023/02/08 13:15:54;;;;;;;29.23;27.00;;;;;;;;;;5083171;28;20235;-83
2023/02/08 13:18:23;;;;;;;29.77;27.50;;;;;;;;;;5081985;28;20207;-83
2023/02/08 13:20:52;;;;;;;31.90;29.27;;;;;;;;;;5083547;28;20206;-84
2023/02/08 13:23:23;;;;;;;27.13;25.23;;;;;;;;;;5082662;28;20201;-85
2023/02/08 13:25:52;;;;;;;25.70;23.98;;;;;;;;;;5082974;28;20298;-84
2023/02/08 13:28:21;;;;;;;28.63;26.42;;;;;;;;;;5083033;28;20209;-84
2023/02/08 13:30:54;;;;;;;28.90;27.05;;;;;;;;;;5083331;28;20222;-84
2023/02/08 13:33:27;;;;;;;27.55;25.45;;;;;;;;;;5083078;28;20214;-84
2023/02/08 13:35:54;;;;;;;27.05;25.17;;;;;;;;;;5083612;28;20233;-84
2023/02/08 13:38:25;;;;;;;25.73;23.92;;;;;;;;;;5083993;28;20259;-84
2023/02/08 13:41:02;;;;;;;24.15;22.55;;;;;;;;;;5083326;28;20268;-84
2023/02/08 13:43:32;;;;;;;23.63;22.17;;;;;;;;;;5083005;28;20197;-84
2023/02/08 13:45:59;;;;;;;24.02;22.52;;;;;;;;;;5084017;28;20221;-84
2023/02/08 13:48:28;;;;;;;22.95;21.55;;;;;;;;;;5083575;28;20296;-85
2023/02/08 13:50:55;;;;;;;23.40;22.00;;;;;;;;;;5083341;28;20225;-84
2023/02/08 13:53:37;;;;;;;22.80;21.40;;;;;;;;;;5084390;28;20210;-84
2023/02/08 13:56:07;;;;;;;23.20;21.70;;;;;;;;;;5083416;28;20252;-84
2023/02/08 13:58:38;;;;;;;23.45;21.85;;;;;;;;;;5083683;28;20554;-84
2023/02/08 14:01:29;;;;;;;23.60;22.17;;;;;;;;;;5084271;28;20210;-84
2023/02/08 14:04:15;;;;;;;23.52;22.02;;;;;;;;;;5068375;28;20210;-84
2023/02/08 14:06:46;;;;;;;23.15;21.75;;;;;;;;;;5084372;28;20219;-84
2023/02/08 14:09:17;;;;;;;23.67;22.27;;;;;;;;;;5088058;28;20245;-84
2023/02/08 14:11:48;;;;;;;22.95;21.45;;;;;;;;;;5085979;28;20215;-84
2023/02/08 14:14:16;;;;;;;21.90;20.60;;;;;;;;;;5087680;28;20191;-84
2023/02/08 14:16:44;;;;;;;22.70;21.40;;;;;;;;;;5085867;28;20459;-84
2023/02/08 14:19:22;;;;;;;23.52;22.05;;;;;;;;;;5086541;28;20195;-84
2023/02/08 14:21:59;;;;;;;23.30;21.90;;;;;;;;;;5086147;28;20211;-84
2023/02/08 14:24:32;;;;;;;22.92;21.63;;;;;;;;;;5086516;28;20727;-84
2023/02/08 14:27:06;;;;;;;23.85;22.35;;;;;;;;;;5086115;28;20211;-85
2023/02/08 14:29:33;;;;;;;24.45;22.85;;;;;;;;;;5086497;28;20190;-84
2023/02/08 14:32:00;;;;;;;23.08;21.58;;;;;;;;;;5086368;28;20819;-84
2023/02/08 14:34:31;;;;;;;24.35;22.85;;;;;;;;;;5087466;28;20233;-84
2023/02/08 14:37:04;;;;;;;24.63;22.90;;;;;;;;;;5085395;28;20224;-84